Time;durP1;ratioP1;P1;durP2;ratioP2;P2;SDS_P1;SDS_P2;PMS_P1;PMS_P2;Temp;Humidity;BMP_temperature;BMP_pressure;BME280_temperature;BME280_humidity;BME280_pressure;Samples;Min_cycle;Max_cycle;Signal;HPM_P1;HPM_P2
2022/01/11 00:01:42;;;;;;;1547.65;643.55;;;-0.70;99.90;;;;;;6062741;23;20098;-85
2022/01/11 00:04:15;;;;;;;1552.43;650.30;;;-0.60;99.90;;;;;;6088958;23;20018;-84
2022/01/11 00:07:01;;;;;;;1600.85;656.50;;;-0.60;99.90;;;;;;6088624;23;20022;-82
2022/01/11 00:09:41;;;;;;;1555.28;645.55;;;-1.30;99.90;;;;;;6087938;23;20025;-84
2022/01/11 00:12:09;;;;;;;1540.28;629.60;;;-0.60;99.90;;;;;;6088763;23;20085;-84
2022/01/11 00:14:36;;;;;;;1567.97;649.45;;;-0.60;99.90;;;;;;6062433;23;20022;-84
2022/01/11 00:17:02;;;;;;;1553.93;645.20;;;-0.70;99.90;;;;;;6062499;23;20624;-84
2022/01/11 00:19:37;;;;;;;1555.93;657.88;;;-0.70;99.90;;;;;;6087819;23;20053;-84
2022/01/11 00:22:32;;;;;;;1535.97;642.88;;;-2.30;99.90;;;;;;6062330;23;20069;-84
2022/01/11 00:24:58;;;;;;;1526.18;642.78;;;-0.80;99.90;;;;;;6060974;23;20097;-84
2022/01/11 00:27:24;;;;;;;1538.70;651.65;;;-0.80;99.90;;;;;;6088639;23;20053;-84
2022/01/11 00:29:52;;;;;;;1545.30;657.70;;;-0.90;99.90;;;;;;6088291;23;20029;-84
2022/01/11 00:32:36;;;;;;;1527.57;642.45;;;1.80;99.90;;;;;;6089225;23;20019;-84
2022/01/11 00:35:03;;;;;;;1538.78;645.63;;;-0.90;99.90;;;;;;6090649;23;20030;-84
2022/01/11 00:40:08;;;;;;;1577.88;675.95;;;-0.90;99.90;;;;;;6143752;23;20029;-85
2022/01/11 00:42:40;;;;;;;1522.28;638.47;;;-0.90;99.90;;;;;;6123274;23;20443;-83
2022/01/11 00:45:18;;;;;;;1546.28;659.72;;;0.80;99.90;;;;;;6121773;23;20017;-84
2022/01/11 00:47:43;;;;;;;1542.78;655.00;;;-1.00;99.90;;;;;;6120049;23;20103;-81
2022/01/11 00:50:09;;;;;;;1529.93;656.38;;;-1.10;99.90;;;;;;6123205;23;20021;-84
2022/01/11 00:52:35;;;;;;;1523.00;637.67;;;1.10;99.90;;;;;;6122960;23;20029;-82
2022/01/11 00:55:10;;;;;;;1525.15;640.15;;;0.20;99.90;;;;;;6121575;23;20357;-81
2022/01/11 00:57:36;;;;;;;1519.32;636.05;;;-1.00;99.90;;;;;;6122619;23;20022;-85
2022/01/11 01:00:08;;;;;;;1529.30;633.83;;;-1.00;99.90;;;;;;6121030;23;20371;-80
2022/01/11 01:02:34;;;;;;;1544.30;645.10;;;-1.00;99.90;;;;;;6147718;23;20018;-81
2022/01/11 01:05:06;;;;;;;1527.75;639.78;;;-1.10;99.90;;;;;;6120944;23;20092;-83
2022/01/11 01:07:31;;;;;;;1522.68;634.35;;;0.20;99.90;;;;;;6122393;23;20017;-82
2022/01/11 01:10:04;;;;;;;1526.03;640.45;;;-1.30;99.90;;;;;;6122806;23;20080;-84
2022/01/11 01:12:33;;;;;;;1526.25;646.08;;;1.10;99.90;;;;;;6121830;23;20021;-83
2022/01/11 01:14:59;;;;;;;1561.50;644.85;;;-0.40;99.90;;;;;;6121746;23;20454;-83
2022/01/11 01:17:26;;;;;;;1518.53;641.33;;;-0.50;99.90;;;;;;6111921;23;20022;-82
2022/01/11 01:19:55;;;;;;;1555.88;643.58;;;-1.20;99.90;;;;;;6123794;23;20116;-81
2022/01/11 01:22:22;;;;;;;1509.22;635.95;;;-1.30;99.90;;;;;;6123575;23;20361;-83
2022/01/11 01:24:48;;;;;;;1524.90;644.58;;;-1.30;99.90;;;;;;6122595;23;20021;-84
2022/01/11 01:27:14;;;;;;;1515.55;630.75;;;1.10;99.90;;;;;;6123211;23;20013;-83
2022/01/11 01:29:49;;;;;;;1544.07;652.05;;;-1.10;99.90;;;;;;6146735;23;20789;-83
2022/01/11 01:32:14;;;;;;;1520.47;634.42;;;-1.20;99.90;;;;;;6122788;23;20021;-83
2022/01/11 01:34:40;;;;;;;1509.75;645.80;;;-0.70;99.90;;;;;;6122721;23;20020;-83
2022/01/11 01:37:07;;;;;;;1512.10;650.38;;;-1.20;99.90;;;;;;6146750;23;20021;-84
2022/01/11 01:39:34;;;;;;;1511.95;650.33;;;0.00;99.90;;;;;;6123168;23;20389;-84
2022/01/11 01:42:04;;;;;;;1520.03;650.42;;;-1.20;99.90;;;;;;6120682;23;20275;-83
2022/01/11 01:44:32;;;;;;;1522.68;649.25;;;-1.20;99.90;;;;;;6118913;23;20489;-83
2022/01/11 01:46:58;;;;;;;1522.28;655.92;;;-1.20;99.90;;;;;;6122749;23;20013;-83
2022/01/11 01:49:23;;;;;;;1510.10;638.85;;;-1.20;99.90;;;;;;6120604;23;20105;-83
2022/01/11 01:51:51;;;;;;;1510.53;638.80;;;-1.20;99.90;;;;;;6147485;23;20025;-83
2022/01/11 01:54:17;;;;;;;1530.03;656.80;;;-1.20;99.90;;;;;;6121802;23;20311;-83
2022/01/11 01:56:43;;;;;;;1520.43;644.45;;;-1.20;99.90;;;;;;6122039;23;20336;-83
2022/01/11 01:59:12;;;;;;;1517.38;648.22;;;-1.20;99.90;;;;;;6148446;23;20083;-84
2022/01/11 02:01:45;;;;;;;1514.57;646.20;;;-1.20;99.90;;;;;;6121454;23;20013;-83
2022/01/11 02:04:12;;;;;;;1506.28;647.90;;;-0.40;99.90;;;;;;6130618;23;20020;-82
2022/01/11 02:06:39;;;;;;;1512.47;649.30;;;-1.20;99.90;;;;;;6149559;23;20009;-83
2022/01/11 02:09:04;;;;;;;1518.90;650.63;;;-1.20;99.90;;;;;;6122337;23;20096;-81
2022/01/11 02:11:31;;;;;;;1513.00;644.67;;;-1.20;99.90;;;;;;6122547;23;20388;-81
2022/01/11 02:13:58;;;;;;;1512.25;641.83;;;-1.20;99.90;;;;;;6122221;23;20021;-83
2022/01/11 02:16:24;;;;;;;1517.30;644.60;;;-1.10;99.90;;;;;;6149955;23;20023;-83
2022/01/11 02:18:52;;;;;;;1523.50;653.22;;;-1.10;99.90;;;;;;6119647;23;20048;-81
2022/01/11 02:21:18;;;;;;;1517.28;638.78;;;-1.10;99.90;;;;;;6121510;23;20017;-80
2022/01/11 02:23:44;;;;;;;1521.82;656.53;;;-1.00;99.90;;;;;;6122581;23;20017;-83
2022/01/11 02:26:10;;;;;;;1527.78;654.20;;;-1.00;99.90;;;;;;6120440;23;20060;-82
2022/01/11 02:28:36;;;;;;;1517.65;636.08;;;-1.00;99.90;;;;;;6120573;23;20049;-81
2022/01/11 02:31:07;;;;;;;1520.47;647.78;;;-1.00;99.90;;;;;;6122199;23;20431;-81
2022/01/11 02:33:44;;;;;;;1536.50;648.92;;;-1.00;99.90;;;;;;6121451;23;20022;-82
2022/01/11 02:36:18;;;;;;;1520.72;635.83;;;-0.90;99.90;;;;;;6121937;23;20020;-82
2022/01/11 02:38:46;;;;;;;1531.55;652.53;;;-0.90;99.90;;;;;;6118912;23;20025;-82
2022/01/11 02:41:11;;;;;;;1516.68;635.25;;;-0.90;99.90;;;;;;6146373;23;20018;-82
2022/01/11 02:43:41;;;;;;;1541.57;650.97;;;-0.90;99.90;;;;;;6121401;23;20045;-82
2022/01/11 02:46:07;;;;;;;1533.15;646.10;;;-0.90;99.90;;;;;;6148655;23;20464;-82
2022/01/11 02:48:33;;;;;;;1569.30;648.63;;;-0.90;99.90;;;;;;6127658;23;20100;-82
2022/01/11 02:50:58;;;;;;;1539.72;654.25;;;-0.90;99.90;;;;;;6150127;23;20156;-82
2022/01/11 02:53:24;;;;;;;1537.85;646.28;;;-0.90;99.90;;;;;;6147291;23;20081;-81
2022/01/11 02:55:50;;;;;;;1534.53;643.17;;;-0.90;99.90;;;;;;6122468;23;20029;-81
2022/01/11 02:58:15;;;;;;;1604.00;638.97;;;-0.90;99.90;;;;;;6122853;23;20113;-81
2022/01/11 03:00:42;;;;;;;1531.28;647.30;;;-0.90;99.90;;;;;;6149730;23;20025;-81
2022/01/11 03:03:23;;;;;;;1517.47;631.55;;;-0.90;99.90;;;;;;6122777;23;20025;-83
2022/01/11 03:05:54;;;;;;;1524.30;642.30;;;-0.90;99.90;;;;;;6125566;23;20621;-82
2022/01/11 03:08:24;;;;;;;1553.75;640.25;;;-0.80;99.90;;;;;;6149501;23;20242;-81
2022/01/11 03:10:51;;;;;;;1551.68;650.92;;;-0.80;99.90;;;;;;6123335;23;20017;-81
2022/01/11 03:13:18;;;;;;;1527.68;637.15;;;-0.80;99.90;;;;;;6124183;23;20048;-81
2022/01/11 03:15:45;;;;;;;1530.05;641.58;;;-0.80;99.90;;;;;;6122482;23;20085;-81
2022/01/11 03:18:11;;;;;;;1557.32;644.30;;;-0.80;99.90;;;;;;6122489;23;20116;-82
2022/01/11 03:20:39;;;;;;;1555.50;645.75;;;-0.80;99.90;;;;;;6150244;23;20188;-80
2022/01/11 03:23:06;;;;;;;1518.88;629.97;;;-0.70;99.90;;;;;;6123346;23;20462;-81
2022/01/11 03:25:33;;;;;;;1563.45;641.47;;;-0.70;99.90;;;;;;6122866;23;20025;-82
2022/01/11 03:27:58;;;;;;;1529.22;626.55;;;-0.70;99.90;;;;;;6125164;23;20013;-81
2022/01/11 03:30:24;;;;;;;1560.20;645.97;;;-0.70;99.90;;;;;;6123820;23;20025;-80
2022/01/11 03:32:50;;;;;;;1531.10;643.53;;;-0.70;99.90;;;;;;6131488;23;20021;-79
2022/01/11 03:35:16;;;;;;;1529.43;633.85;;;-0.70;99.90;;;;;;6127674;23;20009;-81
2022/01/11 03:37:43;;;;;;;1534.80;629.42;;;-0.70;99.90;;;;;;6123316;23;20021;-83
2022/01/11 03:40:13;;;;;;;1526.75;627.50;;;-0.70;99.90;;;;;;6124468;23;20048;-82
2022/01/11 03:42:39;;;;;;;1534.70;651.20;;;-0.70;99.90;;;;;;6123910;23;20030;-81
2022/01/11 03:45:07;;;;;;;1533.68;643.03;;;-0.70;99.90;;;;;;6121128;23;20022;-81
2022/01/11 03:47:33;;;;;;;1534.82;635.45;;;-0.70;99.90;;;;;;6125147;23;20057;-81
2022/01/11 03:49:59;;;;;;;1513.55;617.35;;;-0.70;99.90;;;;;;6124629;23;20474;-81
2022/01/11 03:52:25;;;;;;;1520.45;617.17;;;-0.70;99.90;;;;;;6123336;23;20025;-81
2022/01/11 03:57:23;;;;;;;1523.97;638.35;;;-0.70;99.90;;;;;;6148472;23;20029;-81
2022/01/11 03:59:50;;;;;;;1528.30;636.70;;;-0.70;99.90;;;;;;6122616;23;20026;-81
2022/01/11 04:02:17;;;;;;;1532.32;639.58;;;-0.70;99.90;;;;;;6123461;23;20461;-81
2022/01/11 04:04:42;;;;;;;1512.80;624.95;;;-0.80;99.90;;;;;;6123510;23;20035;-80
2022/01/11 04:07:08;;;;;;;1523.60;651.58;;;-0.70;99.90;;;;;;6121633;23;20025;-81
2022/01/11 04:09:33;;;;;;;1521.05;647.40;;;-0.70;99.90;;;;;;6123943;23;20076;-81
2022/01/11 04:11:59;;;;;;;1514.50;633.30;;;-0.70;99.90;;;;;;6124012;23;20262;-81
2022/01/11 04:14:25;;;;;;;1517.32;641.85;;;-0.70;99.90;;;;;;6123161;23;20041;-81
2022/01/11 04:16:52;;;;;;;1531.30;645.85;;;-0.70;99.90;;;;;;6133930;23;20029;-82
2022/01/11 04:19:18;;;;;;;1531.00;626.80;;;-0.70;99.90;;;;;;6132065;23;20021;-80
2022/01/11 04:21:44;;;;;;;1527.78;630.53;;;-0.70;99.90;;;;;;6125395;23;20038;-82
2022/01/11 04:24:12;;;;;;;1553.32;635.92;;;-0.70;99.90;;;;;;6124778;23;20474;-81
2022/01/11 04:26:38;;;;;;;1535.40;641.13;;;-0.70;99.90;;;;;;6123454;23;20014;-81
2022/01/11 04:29:03;;;;;;;1533.65;639.15;;;-0.70;99.90;;;;;;6124443;23;20053;-81
2022/01/11 04:31:30;;;;;;;1532.70;628.10;;;-0.60;99.90;;;;;;6124323;23;20079;-80
2022/01/11 04:33:55;;;;;;;1550.95;650.75;;;-0.60;99.90;;;;;;6119921;23;20021;-80
2022/01/11 04:36:21;;;;;;;1549.78;637.60;;;-0.70;99.90;;;;;;6123050;23;20533;-81
2022/01/11 04:38:47;;;;;;;1547.47;626.40;;;-0.60;99.90;;;;;;6121357;23;20020;-81
2022/01/11 04:41:13;;;;;;;1584.45;636.85;;;-0.60;99.90;;;;;;6122992;23;20100;-80
2022/01/11 04:43:39;;;;;;;1555.72;649.70;;;-0.60;99.90;;;;;;6121774;23;20017;-80
2022/01/11 04:46:04;;;;;;;1549.57;638.35;;;-0.60;99.90;;;;;;6121679;23;20028;-80
2022/01/11 04:48:32;;;;;;;1537.63;618.78;;;-0.60;99.90;;;;;;6122373;23;20048;-81
2022/01/11 04:51:00;;;;;;;1534.90;628.05;;;-0.60;99.90;;;;;;6124238;23;20014;-80
2022/01/11 04:53:26;;;;;;;1548.10;633.85;;;-0.60;99.90;;;;;;6121914;23;20068;-80
2022/01/11 04:55:52;;;;;;;1551.30;630.33;;;-0.60;99.90;;;;;;6148783;23;20021;-81
2022/01/11 04:58:18;;;;;;;1550.82;627.83;;;-0.60;99.90;;;;;;6123804;23;20025;-81
2022/01/11 05:00:44;;;;;;;1575.45;636.10;;;-0.60;99.90;;;;;;6123987;23;20025;-81
2022/01/11 05:03:09;;;;;;;1553.35;627.75;;;-0.60;99.90;;;;;;6134806;23;20013;-80
2022/01/11 05:05:35;;;;;;;1537.82;624.83;;;-0.70;99.90;;;;;;6128469;23;20021;-81
2022/01/11 05:08:02;;;;;;;1529.13;608.03;;;-0.60;99.90;;;;;;6122360;23;20009;-81
2022/01/11 05:10:28;;;;;;;1533.15;617.72;;;-0.60;99.90;;;;;;6121705;23;20017;-81
2022/01/11 05:12:54;;;;;;;1546.95;632.72;;;-0.60;99.90;;;;;;6126269;23;20090;-81
2022/01/11 05:15:20;;;;;;;1556.47;605.95;;;-0.60;99.90;;;;;;6122758;23;20017;-80
2022/01/11 05:17:46;;;;;;;1560.05;622.20;;;-0.60;99.90;;;;;;6123328;23;20525;-82
2022/01/11 05:20:13;;;;;;;1554.93;615.65;;;-0.60;99.90;;;;;;6123589;23;20044;-81
2022/01/11 05:22:39;;;;;;;1556.03;607.40;;;-0.60;99.90;;;;;;6122685;23;20021;-81
2022/01/11 05:25:06;;;;;;;1552.90;618.33;;;-0.60;99.90;;;;;;6124033;23;20145;-82
2022/01/11 05:27:32;;;;;;;1574.60;606.90;;;-0.60;99.90;;;;;;6123106;23;20018;-83
2022/01/11 05:29:58;;;;;;;1572.32;620.67;;;-0.60;99.90;;;;;;6123103;23;20048;-82
2022/01/11 05:32:26;;;;;;;1578.38;628.40;;;-0.60;99.90;;;;;;6123803;23;20450;-80
2022/01/11 05:34:51;;;;;;;1569.00;624.90;;;-0.60;99.90;;;;;;6123914;23;20151;-82
2022/01/11 05:37:17;;;;;;;1551.75;611.22;;;-0.60;99.90;;;;;;6122614;23;20045;-81
2022/01/11 05:39:42;;;;;;;1580.43;626.90;;;-0.50;99.90;;;;;;6124191;23;20078;-82
2022/01/11 05:42:08;;;;;;;1577.75;615.35;;;-0.50;99.90;;;;;;6124097;23;20020;-81
2022/01/11 05:44:35;;;;;;;1570.93;631.05;;;-0.50;99.90;;;;;;6122415;23;20057;-81
2022/01/11 05:47:02;;;;;;;1572.55;613.95;;;-0.50;99.90;;;;;;6124071;23;20450;-81
2022/01/11 05:49:28;;;;;;;1570.60;615.97;;;-0.50;99.90;;;;;;6131378;23;20021;-82
2022/01/11 05:51:53;;;;;;;1573.97;612.75;;;-0.50;99.90;;;;;;6122466;23;20060;-81
2022/01/11 05:54:19;;;;;;;1562.55;602.78;;;-0.50;99.90;;;;;;6123513;23;20045;-81
2022/01/11 05:56:45;;;;;;;1572.38;620.35;;;-0.50;99.90;;;;;;6123740;23;20014;-81
2022/01/11 05:59:10;;;;;;;1565.95;606.72;;;-0.50;99.90;;;;;;6121974;23;20017;-80
2022/01/11 06:01:36;;;;;;;1570.28;614.60;;;-0.50;99.90;;;;;;6124014;23;20049;-81
2022/01/11 06:04:02;;;;;;;1573.60;620.53;;;-0.50;99.90;;;;;;6121724;23;20021;-82
2022/01/11 06:06:27;;;;;;;1576.00;605.35;;;-0.50;99.90;;;;;;6124013;23;20067;-81
2022/01/11 06:08:53;;;;;;;1578.50;614.28;;;-0.50;99.90;;;;;;6123208;23;20387;-81
2022/01/11 06:11:18;;;;;;;1550.03;602.03;;;-0.50;99.90;;;;;;6123009;23;20072;-81
2022/01/11 06:13:44;;;;;;;1572.72;627.38;;;-0.50;99.90;;;;;;6122968;23;20049;-81
2022/01/11 06:16:10;;;;;;;1567.07;607.72;;;-0.50;99.90;;;;;;6124029;23;20164;-81
2022/01/11 06:18:36;;;;;;;1566.82;606.58;;;-0.50;99.90;;;;;;6122738;23;20017;-81
2022/01/11 06:21:02;;;;;;;1560.47;592.92;;;-0.50;99.90;;;;;;6123969;23;20088;-81
2022/01/11 06:23:28;;;;;;;1585.38;606.63;;;-0.50;99.90;;;;;;6121882;23;20542;-81
2022/01/11 06:25:53;;;;;;;1583.05;604.25;;;-0.50;99.90;;;;;;6117373;23;20045;-81
2022/01/11 06:28:20;;;;;;;1570.18;600.03;;;-0.50;99.90;;;;;;6122753;23;20087;-81
2022/01/11 06:30:47;;;;;;;1585.15;620.72;;;-0.50;99.90;;;;;;6126743;23;20021;-81
2022/01/11 06:33:14;;;;;;;1558.10;606.30;;;-0.50;99.90;;;;;;6121467;23;20376;-82
2022/01/11 06:35:39;;;;;;;1585.50;623.63;;;-0.50;99.90;;;;;;6122574;23;20017;-82
2022/01/11 06:38:05;;;;;;;1612.45;624.05;;;-0.50;99.90;;;;;;6123619;23;20412;-82
2022/01/11 06:40:32;;;;;;;1613.95;599.95;;;-0.50;99.90;;;;;;6124994;23;20021;-81
2022/01/11 06:42:58;;;;;;;1636.30;643.03;;;-0.40;99.90;;;;;;6124858;23;20048;-81
2022/01/11 06:45:24;;;;;;;1580.82;666.67;;;-0.40;99.90;;;;;;6124455;23;20517;-82
2022/01/11 06:47:51;;;;;;;1572.60;649.47;;;-0.40;99.90;;;;;;6124825;23;20022;-81
2022/01/11 06:50:17;;;;;;;1589.50;706.22;;;-0.40;99.90;;;;;;6125166;23;20399;-81
2022/01/11 06:52:43;;;;;;;1528.80;684.80;;;-0.40;99.90;;;;;;6123680;23;20048;-81
2022/01/11 06:55:09;;;;;;;1531.35;694.55;;;-0.40;99.90;;;;;;6124118;23;20017;-82
2022/01/11 06:57:35;;;;;;;1536.07;766.28;;;-0.40;99.90;;;;;;6124515;23;20084;-82
2022/01/11 07:00:01;;;;;;;1514.90;807.38;;;-0.30;99.90;;;;;;6124404;23;20100;-82
2022/01/11 07:02:26;;;;;;;1456.38;752.15;;;-0.40;99.90;;;;;;6125406;23;20021;-82
2022/01/11 07:04:52;;;;;;;1410.78;823.40;;;-0.40;99.90;;;;;;6125191;23;20049;-82
2022/01/11 07:07:18;;;;;;;1445.80;839.70;;;-0.30;99.90;;;;;;6124797;23;20018;-81
2022/01/11 07:09:43;;;;;;;1405.05;896.63;;;-0.30;99.90;;;;;;6124299;23;20031;-81
2022/01/11 07:12:09;;;;;;;1462.75;942.35;;;-0.30;99.90;;;;;;6125116;23;20096;-84
2022/01/11 07:14:35;;;;;;;1425.10;974.45;;;-0.30;99.90;;;;;;6133110;23;20021;-79
2022/01/11 07:17:00;;;;;;;1397.53;911.45;;;-0.30;99.90;;;;;;6126097;23;20010;-81
2022/01/11 07:19:29;;;;;;;1422.60;967.63;;;-0.30;99.90;;;;;;6125008;23;20108;-80
2022/01/11 07:21:56;;;;;;;1411.55;987.45;;;-0.30;99.90;;;;;;6123499;23;20013;-80
2022/01/11 07:24:23;;;;;;;1408.63;953.55;;;-0.30;99.90;;;;;;6147711;23;20025;-80
2022/01/11 07:26:49;;;;;;;1406.03;978.67;;;-0.30;99.90;;;;;;6123988;23;20016;-81
2022/01/11 07:29:14;;;;;;;1414.25;999.90;;;-0.30;99.90;;;;;;6123771;23;20470;-79
2022/01/11 07:31:41;;;;;;;1408.88;997.58;;;-0.30;99.90;;;;;;6125523;23;20068;-81
2022/01/11 07:34:08;;;;;;;1382.00;977.65;;;-0.30;99.90;;;;;;6125934;23;20029;-80
2022/01/11 07:36:35;;;;;;;1397.55;929.30;;;-0.30;99.90;;;;;;6153530;23;20144;-81
2022/01/11 07:39:05;;;;;;;1405.82;964.08;;;-0.30;99.90;;;;;;6110311;23;20054;-81
2022/01/11 07:41:30;;;;;;;1447.57;995.40;;;-0.50;99.90;;;;;;6125110;23;20053;-81
2022/01/11 07:43:57;;;;;;;1392.15;979.92;;;-0.30;99.90;;;;;;6121010;23;20025;-82
2022/01/11 07:46:23;;;;;;;1458.63;999.90;;;-0.40;99.90;;;;;;6124601;23;20116;-81
2022/01/11 07:48:50;;;;;;;1424.10;940.67;;;1.50;99.90;;;;;;6124593;23;20021;-82
2022/01/11 07:51:15;;;;;;;1450.15;999.30;;;-0.20;99.90;;;;;;6132433;23;20017;-81
2022/01/11 07:53:41;;;;;;;1438.75;975.30;;;-0.30;99.90;;;;;;6124515;23;20017;-81
2022/01/11 07:56:07;;;;;;;1440.03;994.58;;;0.10;99.90;;;;;;6126109;23;20021;-79
2022/01/11 07:58:33;;;;;;;1447.45;932.58;;;-0.10;99.90;;;;;;6135068;23;20108;-81
2022/01/11 08:00:58;;;;;;;1450.18;921.38;;;-0.20;99.90;;;;;;6124798;23;20032;-80
2022/01/11 08:03:24;;;;;;;1428.60;884.45;;;-0.10;99.90;;;;;;6151450;23;20028;-79
2022/01/11 08:05:53;;;;;;;1469.50;877.05;;;1.70;99.90;;;;;;6124490;23;20339;-82
2022/01/11 08:08:19;;;;;;;1497.18;870.35;;;-0.20;99.90;;;;;;6123914;23;20104;-83
2022/01/11 08:10:45;;;;;;;1483.93;955.03;;;0.70;99.90;;;;;;6123966;23;20052;-82
2022/01/11 08:13:11;;;;;;;1453.45;894.13;;;-0.30;99.90;;;;;;6124887;23;20339;-80
2022/01/11 08:15:37;;;;;;;1461.68;843.17;;;0.00;99.90;;;;;;6124097;23;20172;-83
2022/01/11 08:18:23;;;;;;;1434.18;868.75;;;0.70;99.90;;;;;;6123840;23;20076;-82
2022/01/11 08:20:49;;;;;;;1504.47;881.42;;;0.00;99.90;;;;;;6123697;23;20080;-83
2022/01/11 08:23:15;;;;;;;1428.40;878.40;;;0.30;99.90;;;;;;6123610;23;20018;-82
2022/01/11 08:25:41;;;;;;;1472.57;848.30;;;-0.20;99.90;;;;;;6150258;23;20045;-80
2022/01/11 08:28:09;;;;;;;1467.03;912.75;;;1.50;99.90;;;;;;6124792;23;20076;-80
2022/01/11 08:30:35;;;;;;;1472.25;921.95;;;0.10;99.90;;;;;;6124138;23;20025;-81
2022/01/11 08:33:12;;;;;;;1461.68;854.38;;;-0.20;99.90;;;;;;6124141;23;20351;-82
2022/01/11 08:35:45;;;;;;;1506.82;876.05;;;0.10;99.90;;;;;;6124107;23;20033;-81
2022/01/11 08:38:13;;;;;;;1447.10;897.15;;;0.20;99.90;;;;;;6147374;23;20021;-81
2022/01/11 08:40:38;;;;;;;1505.40;910.22;;;0.80;99.90;;;;;;6123430;23;20087;-82
2022/01/11 08:43:04;;;;;;;1511.00;888.50;;;0.20;99.90;;;;;;6132644;23;20418;-82
2022/01/11 08:45:34;;;;;;;1478.03;900.63;;;0.20;99.90;;;;;;6122509;23;20028;-82
2022/01/11 08:48:02;;;;;;;1434.38;922.63;;;0.10;99.90;;;;;;6123730;23;20017;-81
2022/01/11 08:50:29;;;;;;;1531.75;907.53;;;0.20;99.90;;;;;;6123430;23;20373;-82
2022/01/11 08:52:55;;;;;;;1503.82;922.60;;;0.90;99.90;;;;;;6124249;23;20014;-81
2022/01/11 08:55:29;;;;;;;1526.28;882.80;;;-0.20;99.90;;;;;;6123795;23;20028;-82
2022/01/11 08:57:59;;;;;;;1573.25;866.58;;;0.10;99.90;;;;;;6122216;23;20460;-81
2022/01/11 09:00:26;;;;;;;1597.63;853.80;;;0.20;99.90;;;;;;6122174;23;20474;-81
2022/01/11 09:02:52;;;;;;;1534.55;839.63;;;0.10;99.90;;;;;;6124387;23;20080;-80
2022/01/11 09:05:23;;;;;;;1555.20;787.22;;;0.10;99.90;;;;;;6123771;23;20028;-82
2022/01/11 09:07:49;;;;;;;1567.03;778.35;;;2.30;99.90;;;;;;6124636;23;20025;-82
2022/01/11 09:10:24;;;;;;;1507.55;794.67;;;0.10;99.90;;;;;;6122413;23;20163;-83
2022/01/11 09:12:50;;;;;;;1504.93;792.72;;;1.00;99.90;;;;;;6135977;23;20022;-82
2022/01/11 09:15:16;;;;;;;1533.68;755.08;;;1.70;99.90;;;;;;6149418;23;20041;-83
2022/01/11 09:17:46;;;;;;;1567.85;784.75;;;-0.10;99.90;;;;;;6124725;23;20360;-82
2022/01/11 09:20:13;;;;;;;1514.57;773.13;;;0.50;99.90;;;;;;6124034;23;20374;-82
2022/01/11 09:22:40;;;;;;;1592.80;776.03;;;0.70;99.90;;;;;;6123657;23;20093;-81
2022/01/11 09:25:07;;;;;;;1504.75;846.42;;;-0.10;99.90;;;;;;6129485;23;20022;-80
2022/01/11 09:27:32;;;;;;;1568.63;781.60;;;0.20;99.90;;;;;;6129530;23;20055;-82
2022/01/11 09:29:59;;;;;;;1487.47;812.63;;;0.20;99.90;;;;;;6151065;23;20742;-80
2022/01/11 09:32:25;;;;;;;1538.03;821.58;;;1.20;99.90;;;;;;6124691;23;20057;-82
2022/01/11 09:34:51;;;;;;;1529.03;837.50;;;1.30;99.90;;;;;;6124343;23;20028;-81
2022/01/11 09:37:16;;;;;;;1605.80;764.08;;;0.00;99.90;;;;;;6124077;23;20092;-77
2022/01/11 09:39:43;;;;;;;1565.05;757.90;;;0.20;99.90;;;;;;6123718;23;20048;-83
2022/01/11 09:42:09;;;;;;;1633.47;762.92;;;-0.10;99.90;;;;;;6122764;23;20037;-81
2022/01/11 09:44:38;;;;;;;1637.75;771.15;;;0.30;99.90;;;;;;6123760;23;20100;-80
2022/01/11 09:54:20;;;;;;;1638.53;640.00;;;0.30;99.90;;;;;;6144629;23;20052;-81
2022/01/11 09:56:46;;;;;;;1648.00;652.00;;;0.40;99.90;;;;;;6121171;23;20337;-80
2022/01/11 09:59:27;;;;;;;1659.50;662.15;;;0.30;99.90;;;;;;6123139;23;20057;-80
2022/01/11 10:01:59;;;;;;;1674.88;701.65;;;0.10;99.90;;;;;;6118193;23;20040;-80
2022/01/11 10:04:28;;;;;;;1658.90;695.50;;;0.20;99.90;;;;;;6119306;23;20084;-80
2022/01/11 10:07:00;;;;;;;1629.88;678.03;;;0.70;99.90;;;;;;6122563;23;20018;-81
2022/01/11 10:09:28;;;;;;;1647.65;688.72;;;0.10;99.90;;;;;;6125957;23;20021;-82
2022/01/11 10:11:59;;;;;;;1673.82;689.35;;;0.40;99.90;;;;;;6118863;23;20033;-81
2022/01/11 10:14:31;;;;;;;1685.07;665.15;;;0.10;99.90;;;;;;6123490;23;20037;-81
2022/01/11 10:17:10;;;;;;;1639.55;655.78;;;0.40;99.90;;;;;;6122860;23;20037;-81
2022/01/11 10:19:45;;;;;;;1603.07;674.75;;;0.50;99.90;;;;;;6122755;23;20323;-80
2022/01/11 10:22:21;;;;;;;1615.22;686.58;;;0.50;99.90;;;;;;6123716;23;20101;-82
2022/01/11 10:24:53;;;;;;;1600.07;695.58;;;0.50;99.90;;;;;;6119853;23;20481;-81
2022/01/11 10:27:32;;;;;;;1634.70;711.17;;;0.50;99.90;;;;;;6121568;23;20060;-81
2022/01/11 10:30:09;;;;;;;1654.85;711.15;;;0.50;99.90;;;;;;6121124;23;20121;-80
2022/01/11 10:32:37;;;;;;;1681.15;714.80;;;0.50;99.90;;;;;;6120269;23;20021;-81
2022/01/11 10:35:11;;;;;;;1673.68;660.75;;;0.60;99.90;;;;;;6120524;23;20028;-80
2022/01/11 10:37:42;;;;;;;1658.30;690.17;;;0.70;99.90;;;;;;6147547;23;20005;-81
2022/01/11 10:40:15;;;;;;;1644.20;655.75;;;0.80;99.90;;;;;;6147969;23;20018;-80
2022/01/11 10:42:46;;;;;;;1628.43;654.58;;;0.80;99.90;;;;;;6121588;23;20465;-80
2022/01/11 10:45:14;;;;;;;;;;;0.80;99.90;;;;;;6122803;23;20320;-80
2022/01/11 10:47:47;;;;;;;1618.20;624.22;;;0.80;99.90;;;;;;6147412;23;19917;-82
2022/01/11 10:50:37;;;;;;;1603.45;611.55;;;0.90;99.90;;;;;;6122104;23;20025;-80
2022/01/11 10:53:11;;;;;;;1629.82;622.58;;;1.00;99.90;;;;;;6121096;23;20021;-82
2022/01/11 10:55:38;;;;;;;1613.47;624.10;;;1.10;99.90;;;;;;6120859;23;20570;-81
2022/01/11 10:58:09;;;;;;;1600.82;640.63;;;1.30;99.90;;;;;;6147670;23;20017;-80
2022/01/11 11:00:40;;;;;;;1592.15;664.58;;;1.60;99.90;;;;;;6122213;23;20025;-80
2022/01/11 11:03:10;;;;;;;1578.27;615.07;;;1.70;99.90;;;;;;6149907;23;20337;-81
2022/01/11 11:05:46;;;;;;;1590.25;649.65;;;1.80;99.90;;;;;;6122713;23;20041;-80
2022/01/11 11:08:13;;;;;;;1561.57;705.08;;;2.40;99.90;;;;;;6149957;23;20056;-81
2022/01/11 11:10:44;;;;;;;1511.72;739.55;;;2.00;99.90;;;;;;6123612;23;20350;-79
2022/01/11 11:13:16;;;;;;;1552.03;673.03;;;1.90;99.90;;;;;;6122911;23;20018;-81
2022/01/11 11:15:42;;;;;;;1483.38;744.70;;;2.00;99.90;;;;;;6122322;23;20017;-79
2022/01/11 11:18:22;;;;;;;1410.85;878.90;;;2.20;99.90;;;;;;6148509;23;20362;-80
2022/01/11 11:20:48;;;;;;;1377.15;929.85;;;2.50;99.90;;;;;;6147274;23;20028;-80
2022/01/11 11:23:15;;;;;;;1376.10;918.50;;;2.60;99.90;;;;;;6122525;23;20022;-80
2022/01/11 11:25:40;;;;;;;1416.55;953.95;;;2.70;99.90;;;;;;6122751;23;20021;-84
2022/01/11 11:28:06;;;;;;;1411.45;999.90;;;2.80;99.90;;;;;;6121036;23;20046;-83
2022/01/11 11:30:33;;;;;;;1526.70;999.90;;;3.50;99.90;;;;;;6123858;23;20021;-84
2022/01/11 11:32:59;;;;;;;1672.45;999.90;;;4.60;99.90;;;;;;6124995;23;20532;-84
2022/01/11 11:35:24;;;;;;;1526.22;763.83;;;5.80;99.90;;;;;;6123837;23;20060;-85
2022/01/11 11:37:58;;;;;;;1491.07;767.22;;;6.90;99.90;;;;;;6125615;23;20462;-85
2022/01/11 11:40:27;;;;;;;1402.03;898.40;;;7.60;99.90;;;;;;6128659;23;20028;-81
2022/01/11 11:42:57;;;;;;;1378.47;837.22;;;7.40;99.90;;;;;;6123823;23;20037;-83
2022/01/11 11:45:36;;;;;;;1393.75;865.33;;;6.80;99.90;;;;;;6123767;23;20433;-85
2022/01/11 11:48:06;;;;;;;1474.43;826.03;;;6.20;99.90;;;;;;6124642;23;20020;-83
2022/01/11 11:50:32;;;;;;;1496.47;762.80;;;5.60;99.90;;;;;;6119442;23;20029;-83
2022/01/11 11:52:58;;;;;;;1485.80;744.60;;;5.50;99.90;;;;;;6124323;23;20105;-84
2022/01/11 11:55:28;;;;;;;1503.72;760.72;;;4.70;99.90;;;;;;6151926;23;20029;-84
2022/01/11 11:58:01;;;;;;;1544.10;715.75;;;4.20;99.90;;;;;;6126368;23;20072;-85
2022/01/11 12:00:35;;;;;;;1553.63;697.53;;;4.00;99.90;;;;;;6128605;23;20025;-83
2022/01/11 12:03:19;;;;;;;1558.47;687.17;;;3.70;99.90;;;;;;6126085;23;20418;-85
2022/01/11 12:05:47;;;;;;;1546.50;684.80;;;2.70;99.90;;;;;;6125275;23;20063;-84
2022/01/11 12:08:37;;;;;;;1565.53;676.58;;;3.40;99.90;;;;;;6124361;23;20059;-83
2022/01/11 12:11:02;;;;;;;1566.93;690.58;;;3.20;99.90;;;;;;6123423;23;20449;-86
2022/01/11 12:13:48;;;;;;;1563.80;671.72;;;3.10;99.90;;;;;;6150138;23;20021;-88
2022/01/11 12:16:25;;;;;;;1558.85;679.88;;;3.00;99.90;;;;;;6152069;23;20415;-90
2022/01/11 12:19:38;;;;;;;1559.32;694.13;;;2.40;99.90;;;;;;6127599;23;20014;-85
2022/01/11 12:22:07;;;;;;;1531.72;688.38;;;2.70;99.90;;;;;;6115561;23;20108;-88